sensor_id;sensor_type;location;lat;lon;timestamp;pressure;altitude;pressure_sealevel;temperature;humidity
59315;BME280;46521;50.160;20.802;2024-01-30T00:06:20;101624.34;;;0.28;74.12
59315;BME280;46521;50.160;20.802;2024-01-30T00:16:26;101613.41;;;0.18;74.37
59315;BME280;46521;50.160;20.802;2024-01-30T00:26:28;101613.67;;;0.10;74.63
59315;BME280;46521;50.160;20.802;2024-01-30T00:36:30;101615.59;;;0.05;74.67
59315;BME280;46521;50.160;20.802;2024-01-30T00:46:31;101598.38;;;0.01;74.72
59315;BME280;46521;50.160;20.802;2024-01-30T00:56:33;101603.58;;;0.01;74.67
59315;BME280;46521;50.160;20.802;2024-01-30T01:06:34;101597.64;;;-0.03;74.97
59315;BME280;46521;50.160;20.802;2024-01-30T01:16:35;101588.17;;;-0.05;74.99
59315;BME280;46521;50.160;20.802;2024-01-30T01:26:38;101589.09;;;-0.06;74.85
59315;BME280;46521;50.160;20.802;2024-01-30T01:36:40;101592.59;;;-0.07;74.68
59315;BME280;46521;50.160;20.802;2024-01-30T01:46:41;101590.19;;;-0.13;74.63
59315;BME280;46521;50.160;20.802;2024-01-30T01:56:43;101585.93;;;-0.16;74.52
59315;BME280;46521;50.160;20.802;2024-01-30T02:06:45;101573.19;;;-0.24;74.77
59315;BME280;46521;50.160;20.802;2024-01-30T02:16:47;101577.44;;;-0.21;75.02
59315;BME280;46521;50.160;20.802;2024-01-30T02:26:49;101573.90;;;-0.19;74.58
59315;BME280;46521;50.160;20.802;2024-01-30T02:36:50;101567.24;;;-0.27;74.92
59315;BME280;46521;50.160;20.802;2024-01-30T02:46:52;101560.52;;;-0.33;74.95
59315;BME280;46521;50.160;20.802;2024-01-30T02:56:55;101556.00;;;-0.28;75.02
59315;BME280;46521;50.160;20.802;2024-01-30T03:06:56;101563.45;;;-0.17;75.01
59315;BME280;46521;50.160;20.802;2024-01-30T03:16:58;101561.58;;;-0.13;75.25
59315;BME280;46521;50.160;20.802;2024-01-30T03:26:59;101553.67;;;-0.10;74.84
59315;BME280;46521;50.160;20.802;2024-01-30T03:37:01;101557.27;;;-0.14;74.78
59315;BME280;46521;50.160;20.802;2024-01-30T03:47:03;101551.48;;;-0.23;74.88
59315;BME280;46521;50.160;20.802;2024-01-30T03:57:05;101539.48;;;-0.27;75.07
59315;BME280;46521;50.160;20.802;2024-01-30T04:07:06;101540.51;;;-0.31;74.83
59315;BME280;46521;50.160;20.802;2024-01-30T04:17:08;101554.50;;;-0.35;75.14
59315;BME280;46521;50.160;20.802;2024-01-30T04:27:09;101556.41;;;-0.40;75.14
59315;BME280;46521;50.160;20.802;2024-01-30T04:37:12;101549.50;;;-0.41;75.33
59315;BME280;46521;50.160;20.802;2024-01-30T04:47:13;101548.66;;;-0.42;75.34
59315;BME280;46521;50.160;20.802;2024-01-30T04:57:15;101547.82;;;-0.42;75.38
59315;BME280;46521;50.160;20.802;2024-01-30T05:07:16;101544.30;;;-0.41;75.32
59315;BME280;46521;50.160;20.802;2024-01-30T05:17:18;101552.92;;;-0.39;75.58
59315;BME280;46521;50.160;20.802;2024-01-30T05:27:19;101571.06;;;-0.38;74.98
59315;BME280;46521;50.160;20.802;2024-01-30T05:37:21;101565.87;;;-0.38;75.24
59315;BME280;46521;50.160;20.802;2024-01-30T05:47:22;101556.51;;;-0.43;75.04
59315;BME280;46521;50.160;20.802;2024-01-30T05:57:24;101570.69;;;-0.53;75.12
59315;BME280;46521;50.160;20.802;2024-01-30T06:07:26;101567.34;;;-0.57;75.30
59315;BME280;46521;50.160;20.802;2024-01-30T06:17:28;101560.49;;;-0.60;75.39
59315;BME280;46521;50.160;20.802;2024-01-30T06:27:30;101564.84;;;-0.60;75.52
59315;BME280;46521;50.160;20.802;2024-01-30T06:37:31;101562.10;;;-0.56;75.16
59315;BME280;46521;50.160;20.802;2024-01-30T06:47:33;101551.61;;;-0.52;75.33
59315;BME280;46521;50.160;20.802;2024-01-30T06:57:34;101559.88;;;0.60;74.02
59315;BME280;46521;50.160;20.802;2024-01-30T07:07:36;101550.28;;;2.89;72.28
59315;BME280;46521;50.160;20.802;2024-01-30T07:17:37;101542.11;;;7.87;67.14
59315;BME280;46521;50.160;20.802;2024-01-30T07:27:39;101552.92;;;11.28;64.91
59315;BME280;46521;50.160;20.802;2024-01-30T07:37:40;101555.66;;;12.43;64.96
59315;BME280;46521;50.160;20.802;2024-01-30T07:47:42;101553.57;;;10.42;68.38
59315;BME280;46521;50.160;20.802;2024-01-30T07:57:43;101560.88;;;7.96;67.19
59315;BME280;46521;50.160;20.802;2024-01-30T08:07:45;101559.33;;;5.83;67.30
59315;BME280;46521;50.160;20.802;2024-01-30T08:17:47;101552.09;;;4.62;67.81
59315;BME280;46521;50.160;20.802;2024-01-30T08:27:48;101561.09;;;4.07;68.36
59315;BME280;46521;50.160;20.802;2024-01-30T08:37:50;101560.66;;;3.82;67.49
59315;BME280;46521;50.160;20.802;2024-01-30T08:47:51;101553.58;;;3.66;67.63
59315;BME280;46521;50.160;20.802;2024-01-30T08:57:53;101557.42;;;3.94;68.31
59315;BME280;46521;50.160;20.802;2024-01-30T09:07:55;101547.64;;;4.31;67.94
59315;BME280;46521;50.160;20.802;2024-01-30T09:17:56;101550.16;;;4.50;67.63
59315;BME280;46521;50.160;20.802;2024-01-30T09:27:58;101544.09;;;4.81;67.41
59315;BME280;46521;50.160;20.802;2024-01-30T09:38:00;101543.88;;;5.32;67.02
59315;BME280;46521;50.160;20.802;2024-01-30T09:48:02;101529.99;;;5.91;67.07
59315;BME280;46521;50.160;20.802;2024-01-30T09:58:03;101514.73;;;6.26;65.76
59315;BME280;46521;50.160;20.802;2024-01-30T10:08:08;101494.73;;;6.53;66.04
59315;BME280;46521;50.160;20.802;2024-01-30T10:18:09;101489.39;;;6.81;65.91
59315;BME280;46521;50.160;20.802;2024-01-30T10:28:11;101474.08;;;6.88;64.74
59315;BME280;46521;50.160;20.802;2024-01-30T10:38:15;101479.48;;;6.99;65.31
59315;BME280;46521;50.160;20.802;2024-01-30T10:48:18;101471.55;;;7.27;64.13
59315;BME280;46521;50.160;20.802;2024-01-30T10:58:22;101466.51;;;7.36;64.56
59315;BME280;46521;50.160;20.802;2024-01-30T11:08:24;101445.45;;;7.36;63.87
59315;BME280;46521;50.160;20.802;2024-01-30T11:18:29;101438.63;;;7.47;64.80
59315;BME280;46521;50.160;20.802;2024-01-30T11:28:33;101429.80;;;7.48;63.82
59315;BME280;46521;50.160;20.802;2024-01-30T11:38:37;101409.77;;;7.58;64.19
59315;BME280;46521;50.160;20.802;2024-01-30T11:48:39;101411.05;;;7.52;63.91
59315;BME280;46521;50.160;20.802;2024-01-30T11:58:44;101399.66;;;7.52;63.42
59315;BME280;46521;50.160;20.802;2024-01-30T12:08:58;101396.72;;;7.44;63.00
59315;BME280;46521;50.160;20.802;2024-01-30T12:19:00;101392.07;;;7.21;62.43
59315;BME280;46521;50.160;20.802;2024-01-30T12:29:04;101388.02;;;6.90;63.69
59315;BME280;46521;50.160;20.802;2024-01-30T12:39:05;101376.47;;;6.65;63.07
59315;BME280;46521;50.160;20.802;2024-01-30T12:49:07;101367.72;;;6.52;62.85
59315;BME280;46521;50.160;20.802;2024-01-30T12:59:08;101362.66;;;6.49;63.59
59315;BME280;46521;50.160;20.802;2024-01-30T13:09:10;101363.98;;;6.42;63.07
59315;BME280;46521;50.160;20.802;2024-01-30T13:19:13;101353.96;;;6.34;63.04
59315;BME280;46521;50.160;20.802;2024-01-30T13:29:15;101355.41;;;6.25;63.26
59315;BME280;46521;50.160;20.802;2024-01-30T13:39:17;101350.08;;;6.12;63.78
59315;BME280;46521;50.160;20.802;2024-01-30T13:49:18;101336.59;;;6.04;63.11
59315;BME280;46521;50.160;20.802;2024-01-30T13:59:20;101327.56;;;5.94;64.19
59315;BME280;46521;50.160;20.802;2024-01-30T14:09:25;101330.31;;;5.78;63.75
59315;BME280;46521;50.160;20.802;2024-01-30T14:19:26;101326.01;;;5.63;63.73
59315;BME280;46521;50.160;20.802;2024-01-30T14:29:28;101318.34;;;5.45;63.81
59315;BME280;46521;50.160;20.802;2024-01-30T14:39:29;101321.14;;;5.28;64.95
59315;BME280;46521;50.160;20.802;2024-01-30T14:49:31;101317.86;;;5.10;64.69
59315;BME280;46521;50.160;20.802;2024-01-30T14:59:33;101307.63;;;4.91;64.67
59315;BME280;46521;50.160;20.802;2024-01-30T15:09:35;101310.37;;;4.73;64.53
59315;BME280;46521;50.160;20.802;2024-01-30T15:19:36;101308.06;;;4.53;65.26
59315;BME280;46521;50.160;20.802;2024-01-30T15:29:38;101316.48;;;4.27;65.43
59315;BME280;46521;50.160;20.802;2024-01-30T15:39:39;101321.32;;;4.03;65.08
59315;BME280;46521;50.160;20.802;2024-01-30T15:49:41;101313.39;;;3.89;65.53
59315;BME280;46521;50.160;20.802;2024-01-30T15:59:42;101320.28;;;3.74;65.61
59315;BME280;46521;50.160;20.802;2024-01-30T16:09:44;101309.80;;;3.58;65.36
59315;BME280;46521;50.160;20.802;2024-01-30T16:19:48;101308.91;;;3.41;65.91
59315;BME280;46521;50.160;20.802;2024-01-30T16:29:52;101300.95;;;3.27;65.58
59315;BME280;46521;50.160;20.802;2024-01-30T16:39:53;101293.15;;;3.10;65.86
59315;BME280;46521;50.160;20.802;2024-01-30T16:49:55;101290.56;;;2.92;66.40
59315;BME280;46521;50.160;20.802;2024-01-30T16:59:57;101279.34;;;2.73;66.55
59315;BME280;46521;50.160;20.802;2024-01-30T17:09:59;101277.38;;;2.60;66.52
59315;BME280;46521;50.160;20.802;2024-01-30T17:20:00;101269.27;;;2.47;66.33
59315;BME280;46521;50.160;20.802;2024-01-30T17:30:02;101262.77;;;2.39;66.99
59315;BME280;46521;50.160;20.802;2024-01-30T17:40:05;101265.13;;;2.26;66.99
59315;BME280;46521;50.160;20.802;2024-01-30T17:50:08;101267.32;;;2.16;67.29
59315;BME280;46521;50.160;20.802;2024-01-30T18:00:10;101270.30;;;2.08;67.37
59315;BME280;46521;50.160;20.802;2024-01-30T18:10:11;101267.98;;;2.02;67.38
59315;BME280;46521;50.160;20.802;2024-01-30T18:20:14;101267.44;;;1.95;67.36
59315;BME280;46521;50.160;20.802;2024-01-30T18:30:15;101288.45;;;1.92;67.98
59315;BME280;46521;50.160;20.802;2024-01-30T18:40:17;101281.84;;;1.85;67.96
59315;BME280;46521;50.160;20.802;2024-01-30T18:50:19;101276.91;;;1.79;67.79
59315;BME280;46521;50.160;20.802;2024-01-30T19:00:20;101270.28;;;1.72;68.27
59315;BME280;46521;50.160;20.802;2024-01-30T19:10:22;101275.91;;;1.62;68.45
59315;BME280;46521;50.160;20.802;2024-01-30T19:20:23;101274.25;;;1.61;68.38
59315;BME280;46521;50.160;20.802;2024-01-30T19:30:25;101290.17;;;1.55;68.58
59315;BME280;46521;50.160;20.802;2024-01-30T19:40:27;101273.80;;;1.52;68.28
59315;BME280;46521;50.160;20.802;2024-01-30T19:50:29;101265.34;;;1.47;68.48
59315;BME280;46521;50.160;20.802;2024-01-30T20:00:30;101268.16;;;1.42;68.81
59315;BME280;46521;50.160;20.802;2024-01-30T20:10:32;101264.72;;;1.41;68.91
59315;BME280;46521;50.160;20.802;2024-01-30T20:20:33;101265.33;;;1.28;68.82
59315;BME280;46521;50.160;20.802;2024-01-30T20:30:35;101266.44;;;1.22;68.79
59315;BME280;46521;50.160;20.802;2024-01-30T20:40:36;101266.01;;;1.12;68.97
59315;BME280;46521;50.160;20.802;2024-01-30T20:50:39;101260.42;;;1.01;69.24
59315;BME280;46521;50.160;20.802;2024-01-30T21:00:40;101258.79;;;0.98;69.09
59315;BME280;46521;50.160;20.802;2024-01-30T21:10:41;101261.59;;;0.94;69.28
59315;BME280;46521;50.160;20.802;2024-01-30T21:20:43;101247.86;;;0.90;69.45
59315;BME280;46521;50.160;20.802;2024-01-30T21:30:44;101247.23;;;0.85;69.53
59315;BME280;46521;50.160;20.802;2024-01-30T21:40:46;101238.74;;;0.80;69.43
59315;BME280;46521;50.160;20.802;2024-01-30T21:50:47;101244.21;;;0.74;69.71
59315;BME280;46521;50.160;20.802;2024-01-30T22:00:49;101239.88;;;0.74;69.65
59315;BME280;46521;50.160;20.802;2024-01-30T22:10:50;101249.48;;;0.72;69.72
59315;BME280;46521;50.160;20.802;2024-01-30T22:20:52;101259.27;;;0.67;70.04
59315;BME280;46521;50.160;20.802;2024-01-30T22:30:54;101261.16;;;0.63;69.78
59315;BME280;46521;50.160;20.802;2024-01-30T22:40:59;101259.64;;;0.58;70.22
59315;BME280;46521;50.160;20.802;2024-01-30T22:51:00;101257.17;;;0.54;69.96
59315;BME280;46521;50.160;20.802;2024-01-30T23:01:02;101262.63;;;0.48;70.23
59315;BME280;46521;50.160;20.802;2024-01-30T23:11:03;101266.54;;;0.38;70.31
59315;BME280;46521;50.160;20.802;2024-01-30T23:21:05;101265.89;;;0.33;70.36
59315;BME280;46521;50.160;20.802;2024-01-30T23:31:07;101273.81;;;0.30;70.63
59315;BME280;46521;50.160;20.802;2024-01-30T23:41:08;101276.55;;;0.27;70.43
59315;BME280;46521;50.160;20.802;2024-01-30T23:51:11;101268.05;;;0.22;70.35
